createdAt,value
2023-03-21T00:00:28.956Z,0.00
2023-03-21T00:01:28.856Z,0.00
2023-03-21T00:02:28.911Z,0.00
2023-03-21T00:03:28.977Z,0.00
2023-03-21T00:04:37.991Z,0.00
2023-03-21T00:05:29.947Z,0.00
2023-03-21T00:06:28.846Z,0.00
2023-03-21T00:07:28.934Z,0.00
2023-03-21T00:08:28.771Z,0.00
2023-03-21T00:09:28.760Z,0.00
2023-03-21T00:10:39.489Z,0.00
2023-03-21T00:11:29.737Z,0.00
2023-03-21T00:12:28.762Z,0.00
2023-03-21T00:13:28.720Z,0.00
2023-03-21T00:14:28.714Z,0.00
2023-03-21T00:15:39.979Z,0.00
2023-03-21T00:16:40.055Z,0.00
2023-03-21T00:17:29.676Z,0.00
2023-03-21T00:18:28.670Z,0.00
2023-03-21T00:19:28.693Z,0.00
2023-03-21T00:20:28.621Z,0.00
2023-03-21T00:22:29.618Z,0.00
2023-03-21T00:23:28.609Z,0.00
2023-03-21T00:24:28.633Z,0.00
2023-03-21T00:25:28.568Z,0.00
2023-03-21T00:26:28.585Z,0.00
2023-03-21T00:27:47.557Z,0.00
2023-03-21T00:28:29.546Z,0.00
2023-03-21T00:29:28.598Z,0.00
2023-03-21T00:30:28.531Z,0.00
2023-03-21T00:31:28.515Z,0.00
2023-03-21T00:32:28.539Z,0.00
2023-03-21T00:33:28.476Z,0.00
2023-03-21T00:34:36.981Z,0.00
2023-03-21T00:35:58.424Z,0.00
2023-03-21T00:36:29.521Z,0.00
2023-03-21T00:37:28.457Z,0.00
2023-03-21T00:38:28.585Z,0.00
2023-03-21T00:39:28.443Z,0.00
2023-03-21T00:40:35.032Z,0.00
2023-03-21T00:41:42.112Z,0.00
2023-03-21T00:42:29.426Z,0.00
2023-03-21T00:43:28.376Z,0.00
2023-03-21T00:44:28.398Z,0.00
2023-03-21T00:45:28.374Z,0.00
2023-03-21T00:46:39.857Z,0.00
2023-03-21T00:47:29.438Z,0.00
2023-03-21T00:48:28.399Z,0.00
2023-03-21T00:49:28.353Z,0.00
2023-03-21T00:50:28.314Z,0.00
2023-03-21T00:51:28.328Z,0.00
2023-03-21T00:52:40.164Z,0.00
2023-03-21T00:53:29.275Z,0.00
2023-03-21T00:54:28.295Z,0.00
2023-03-21T00:55:28.273Z,0.00
2023-03-21T00:56:28.241Z,0.00
2023-03-21T00:57:38.021Z,0.00
2023-03-21T00:58:29.225Z,0.00
2023-03-21T00:59:28.210Z,0.00
2023-03-21T01:00:28.297Z,0.00
2023-03-21T01:01:28.214Z,0.00
2023-03-21T01:02:28.305Z,0.00
2023-03-21T01:03:28.183Z,0.00
2023-03-21T01:04:28.166Z,0.00
2023-03-21T01:05:28.235Z,0.00
2023-03-21T01:06:28.159Z,0.00
2023-03-21T01:07:28.153Z,0.00
2023-03-21T01:08:33.180Z,0.00
2023-03-21T01:09:29.107Z,0.00
2023-03-21T01:10:28.181Z,0.00
2023-03-21T01:11:28.136Z,0.00
2023-03-21T01:12:28.138Z,0.00
2023-03-21T01:13:28.100Z,0.00
2023-03-21T01:14:28.081Z,0.00
2023-03-21T01:15:28.070Z,0.00
2023-03-21T01:16:28.167Z,0.00
2023-03-21T01:17:28.013Z,0.00
2023-03-21T01:18:28.039Z,0.00
2023-03-21T01:19:40.602Z,0.00
2023-03-21T01:20:29.016Z,0.00
2023-03-21T01:21:27.996Z,0.00
2023-03-21T01:22:28.011Z,0.00
2023-03-21T01:23:27.979Z,0.00
2023-03-21T01:24:27.946Z,0.00
2023-03-21T01:25:27.931Z,0.00
2023-03-21T01:26:27.925Z,0.00
2023-03-21T01:27:27.943Z,0.00
2023-03-21T01:28:27.937Z,0.00
2023-03-21T01:29:27.892Z,0.00
2023-03-21T01:30:31.230Z,0.00
2023-03-21T01:31:27.887Z,0.00
2023-03-21T01:32:27.990Z,0.00
2023-03-21T01:33:27.921Z,0.00
2023-03-21T01:34:27.861Z,0.00
2023-03-21T01:35:30.043Z,0.00
2023-03-21T01:36:27.988Z,0.00
2023-03-21T01:37:27.863Z,0.00
2023-03-21T01:38:27.808Z,0.00
2023-03-21T01:39:27.836Z,0.00
2023-03-21T01:40:27.780Z,0.00
2023-03-21T01:41:36.617Z,0.00
2023-03-21T01:42:28.764Z,0.00
2023-03-21T01:43:27.782Z,0.00
2023-03-21T01:44:27.779Z,0.00
2023-03-21T01:45:27.872Z,0.00
2023-03-21T01:46:43.472Z,0.00
2023-03-21T01:47:28.793Z,0.00
2023-03-21T01:48:27.711Z,0.00
2023-03-21T01:49:27.685Z,0.00
2023-03-21T01:50:27.669Z,0.00
2023-03-21T01:51:27.661Z,0.00
2023-03-21T01:52:37.143Z,0.00
2023-03-21T01:53:28.688Z,0.00
2023-03-21T01:54:27.649Z,0.00
2023-03-21T01:55:27.643Z,0.00
2023-03-21T01:56:27.607Z,0.00
2023-03-21T01:57:32.484Z,0.00
2023-03-21T01:58:28.639Z,0.00
2023-03-21T01:59:27.586Z,0.00
2023-03-21T02:00:27.553Z,0.00
2023-03-21T02:01:27.588Z,0.00
2023-03-21T02:02:27.540Z,0.00
2023-03-21T02:03:35.772Z,0.00
2023-03-21T02:04:28.545Z,0.00
2023-03-21T02:05:27.514Z,0.00
2023-03-21T02:06:27.509Z,0.00
2023-03-21T02:07:27.489Z,0.00
2023-03-21T02:08:38.348Z,0.00
2023-03-21T02:09:28.776Z,0.00
2023-03-21T02:10:27.485Z,0.00
2023-03-21T02:11:27.463Z,0.00
2023-03-21T02:12:27.480Z,0.00
2023-03-21T02:13:27.433Z,0.00
2023-03-21T02:14:29.535Z,0.00
2023-03-21T02:15:27.452Z,0.00
2023-03-21T02:16:27.506Z,0.00
2023-03-21T02:17:27.428Z,0.00
2023-03-21T02:18:27.399Z,0.00
2023-03-21T02:19:32.975Z,0.00
2023-03-21T02:20:28.415Z,0.00
2023-03-21T02:21:27.343Z,0.00
2023-03-21T02:22:27.500Z,0.00
2023-03-21T02:23:27.329Z,0.00
2023-03-21T02:24:27.299Z,0.00
2023-03-21T02:25:27.331Z,0.00
2023-03-21T02:26:36.172Z,0.00
2023-03-21T02:27:28.361Z,0.00
2023-03-21T02:28:27.262Z,0.00
2023-03-21T02:29:27.401Z,0.00
2023-03-21T02:30:31.837Z,0.00
2023-03-21T02:31:28.348Z,0.00
2023-03-21T02:32:36.997Z,0.00
2023-03-21T02:33:28.259Z,0.00
2023-03-21T02:34:27.208Z,0.00
2023-03-21T02:35:27.265Z,0.00
2023-03-21T02:36:27.261Z,0.00
2023-03-21T02:37:36.776Z,0.00
2023-03-21T02:38:28.168Z,0.00
2023-03-21T02:39:27.164Z,0.00
2023-03-21T02:40:27.151Z,0.00
2023-03-21T02:41:29.863Z,0.00
2023-03-21T02:42:28.167Z,0.00
2023-03-21T02:43:27.110Z,0.00
2023-03-21T02:44:27.110Z,0.00
2023-03-21T02:45:27.091Z,0.00
2023-03-21T02:46:41.815Z,0.00
2023-03-21T02:47:28.158Z,0.00
2023-03-21T02:48:35.342Z,0.00
2023-03-21T02:49:28.068Z,0.00
2023-03-21T02:50:27.050Z,0.00
2023-03-21T02:51:27.104Z,0.00
2023-03-21T02:52:37.879Z,0.00
2023-03-21T02:53:28.129Z,0.00
2023-03-21T02:54:41.904Z,0.00
2023-03-21T02:55:28.008Z,0.00
2023-03-21T02:56:27.036Z,0.00
2023-03-21T02:57:33.798Z,0.00
2023-03-21T02:58:27.993Z,0.00
2023-03-21T02:59:26.944Z,0.00
2023-03-21T03:00:26.940Z,0.00
2023-03-21T03:01:27.078Z,0.00
2023-03-21T03:02:26.938Z,0.00
2023-03-21T03:03:34.102Z,0.00
2023-03-21T03:04:27.949Z,0.00
2023-03-21T03:05:26.930Z,0.00
2023-03-21T03:06:26.930Z,0.00
2023-03-21T03:07:26.883Z,0.00
2023-03-21T03:08:38.460Z,0.00
2023-03-21T03:09:27.869Z,0.00
2023-03-21T03:10:26.857Z,0.00
2023-03-21T03:11:26.977Z,0.00
2023-03-21T03:12:26.812Z,0.00
2023-03-21T03:13:26.807Z,0.00
2023-03-21T03:14:56.400Z,0.00
2023-03-21T03:15:27.837Z,0.00
2023-03-21T03:16:26.806Z,0.00
2023-03-21T03:17:28.367Z,0.00
2023-03-21T03:18:26.758Z,0.00
2023-03-21T03:19:26.914Z,0.00
2023-03-21T03:20:26.748Z,0.00
2023-03-21T03:21:26.722Z,0.00
2023-03-21T03:22:26.724Z,0.00
2023-03-21T03:23:26.700Z,0.00
2023-03-21T03:24:26.717Z,0.00
2023-03-21T03:25:39.923Z,0.00
2023-03-21T03:26:27.785Z,0.00
2023-03-21T03:27:26.645Z,0.00
2023-03-21T03:28:26.649Z,0.00
2023-03-21T03:29:26.688Z,0.00
2023-03-21T03:30:32.342Z,0.00
2023-03-21T03:31:27.708Z,0.00
2023-03-21T03:32:26.587Z,0.00
2023-03-21T03:33:26.599Z,0.00
2023-03-21T03:34:26.642Z,0.00
2023-03-21T03:35:26.607Z,0.00
2023-03-21T03:36:32.190Z,0.00
2023-03-21T03:37:27.576Z,0.00
2023-03-21T03:38:26.620Z,0.00
2023-03-21T03:39:26.525Z,0.00
2023-03-21T03:40:26.566Z,0.00
2023-03-21T03:41:26.542Z,0.00
2023-03-21T03:42:28.671Z,0.00
2023-03-21T03:43:26.490Z,0.00
2023-03-21T03:44:26.477Z,0.00
2023-03-21T03:45:26.472Z,0.00
2023-03-21T03:46:37.361Z,0.00
2023-03-21T03:47:33.789Z,0.00
2023-03-21T03:48:27.447Z,0.00
2023-03-21T03:49:26.433Z,0.00
2023-03-21T03:50:26.427Z,0.00
2023-03-21T03:51:26.466Z,0.00
2023-03-21T03:52:26.522Z,0.00
2023-03-21T03:53:26.437Z,0.00
2023-03-21T03:54:26.354Z,0.00
2023-03-21T03:55:26.464Z,0.00
2023-03-21T03:56:26.381Z,0.00
2023-03-21T03:57:26.334Z,0.00
2023-03-21T03:58:39.462Z,0.00
2023-03-21T03:59:27.377Z,0.00
2023-03-21T04:00:26.304Z,0.00
2023-03-21T04:01:26.311Z,0.00
2023-03-21T04:02:26.329Z,0.00
2023-03-21T04:03:26.388Z,0.00
2023-03-21T04:04:26.370Z,0.00
2023-03-21T04:05:26.330Z,0.00
2023-03-21T04:06:26.262Z,0.00
2023-03-21T04:07:26.229Z,0.00
2023-03-21T04:08:26.245Z,0.00
2023-03-21T04:09:40.905Z,0.00
2023-03-21T04:10:27.207Z,0.00
2023-03-21T04:11:26.208Z,0.00
2023-03-21T04:12:26.183Z,0.00
2023-03-21T04:13:26.192Z,0.00
2023-03-21T04:14:35.630Z,0.00
2023-03-21T04:15:27.164Z,0.00
2023-03-21T04:16:26.263Z,0.00
2023-03-21T04:17:26.138Z,0.00
2023-03-21T04:18:26.143Z,0.00
2023-03-21T04:19:26.119Z,0.00
2023-03-21T04:20:43.262Z,0.00
2023-03-21T04:21:27.133Z,0.00
2023-03-21T04:22:26.098Z,0.00
2023-03-21T04:23:26.060Z,0.00
2023-03-21T04:24:26.051Z,0.00
2023-03-21T04:25:33.382Z,0.00
2023-03-21T04:26:27.028Z,0.00
2023-03-21T04:27:26.059Z,0.00
2023-03-21T04:28:26.046Z,0.00
2023-03-21T04:29:26.003Z,0.00
2023-03-21T04:30:26.009Z,0.00
2023-03-21T04:31:26.462Z,0.00
2023-03-21T04:32:26.016Z,0.00
2023-03-21T04:33:25.988Z,0.00
2023-03-21T04:34:26.000Z,0.00
2023-03-21T04:35:25.939Z,0.00
2023-03-21T04:36:25.924Z,0.00
2023-03-21T04:37:25.939Z,0.00
2023-03-21T04:38:25.952Z,0.00
2023-03-21T04:39:25.905Z,0.00
2023-03-21T04:40:25.915Z,0.00
2023-03-21T04:41:25.938Z,0.00
2023-03-21T04:42:25.871Z,0.00
2023-03-21T04:43:25.860Z,0.00
2023-03-21T04:44:25.919Z,0.00
2023-03-21T04:45:25.925Z,0.00
2023-03-21T04:46:25.887Z,0.00
2023-03-21T04:47:25.812Z,0.00
2023-03-21T04:48:25.800Z,0.00
2023-03-21T04:49:25.792Z,0.00
2023-03-21T04:50:25.857Z,0.00
2023-03-21T04:51:25.797Z,0.00
2023-03-21T04:52:25.745Z,0.00
2023-03-21T04:53:25.740Z,0.00
2023-03-21T04:54:25.757Z,0.00
2023-03-21T04:55:25.798Z,0.00
2023-03-21T04:56:25.708Z,0.00
2023-03-21T04:57:25.707Z,0.00
2023-03-21T04:58:25.764Z,0.00
2023-03-21T04:59:25.715Z,0.00
2023-03-21T05:00:25.735Z,0.00
2023-03-21T05:01:25.706Z,0.00
2023-03-21T05:02:25.697Z,0.00
2023-03-21T05:03:25.660Z,0.00
2023-03-21T05:04:25.802Z,0.00
2023-03-21T05:05:25.634Z,0.00
2023-03-21T05:06:25.636Z,0.00
2023-03-21T05:07:25.616Z,0.00
2023-03-21T05:08:25.582Z,0.00
2023-03-21T05:09:25.605Z,0.00
2023-03-21T05:10:25.608Z,0.00
2023-03-21T05:11:25.676Z,0.00
2023-03-21T05:12:25.576Z,0.00
2023-03-21T05:13:25.536Z,0.00
2023-03-21T05:14:25.625Z,0.00
2023-03-21T05:15:25.519Z,0.00
2023-03-21T05:16:36.723Z,0.00
2023-03-21T05:17:25.499Z,0.00
2023-03-21T05:18:25.483Z,0.00
2023-03-21T05:19:25.532Z,0.00
2023-03-21T05:20:25.456Z,0.00
2023-03-21T05:21:25.476Z,5.62
2023-03-21T05:22:25.584Z,5.62
2023-03-21T05:23:25.449Z,5.62
2023-03-21T05:24:25.468Z,5.62
2023-03-21T05:25:25.411Z,5.62
2023-03-21T05:26:25.421Z,5.62
2023-03-21T05:27:25.398Z,5.62
2023-03-21T05:28:25.398Z,5.62
2023-03-21T05:29:25.455Z,11.25
2023-03-21T05:30:25.548Z,11.25
2023-03-21T05:31:25.497Z,11.25
2023-03-21T05:32:25.388Z,11.25
2023-03-21T05:33:25.344Z,11.25
2023-03-21T05:34:25.356Z,11.25
2023-03-21T05:35:34.844Z,11.25
2023-03-21T05:36:26.327Z,16.88
2023-03-21T05:37:25.344Z,16.88
2023-03-21T05:38:25.270Z,16.88
2023-03-21T05:39:25.342Z,16.88
2023-03-21T05:40:25.266Z,16.88
2023-03-21T05:41:25.272Z,22.50
2023-03-21T05:42:25.307Z,22.50
2023-03-21T05:43:25.258Z,22.50
2023-03-21T05:44:25.290Z,22.50
2023-03-21T05:45:25.261Z,22.50
2023-03-21T05:46:25.461Z,28.12
2023-03-21T05:47:25.173Z,28.12
2023-03-21T05:48:25.208Z,28.12
2023-03-21T05:49:25.158Z,28.12
2023-03-21T05:50:25.182Z,33.75
2023-03-21T05:51:25.149Z,33.75
2023-03-21T05:52:25.229Z,33.75
2023-03-21T05:53:25.140Z,33.75
2023-03-21T05:54:25.095Z,33.75
2023-03-21T05:55:25.088Z,33.75
2023-03-21T05:56:25.243Z,33.75
2023-03-21T05:57:25.119Z,33.75
2023-03-21T05:58:25.136Z,39.38
2023-03-21T05:59:25.051Z,39.38
2023-03-21T06:00:25.161Z,39.38
2023-03-21T06:01:25.028Z,39.38
2023-03-21T06:02:25.144Z,45.00
2023-03-21T06:03:25.068Z,45.00
2023-03-21T06:04:25.021Z,45.00
2023-03-21T06:05:24.994Z,45.00
2023-03-21T06:06:24.977Z,45.00
2023-03-21T06:07:25.023Z,50.62
2023-03-21T06:08:24.954Z,50.62
2023-03-21T06:09:24.948Z,50.62
2023-03-21T06:10:24.947Z,56.25
2023-03-21T06:11:24.932Z,56.25
2023-03-21T06:12:24.954Z,61.88
2023-03-21T06:13:25.003Z,61.88
2023-03-21T06:14:24.948Z,67.50
2023-03-21T06:15:24.980Z,73.12
2023-03-21T06:16:25.090Z,73.12
2023-03-21T06:17:24.860Z,73.12
2023-03-21T06:18:24.940Z,78.75
2023-03-21T06:19:24.874Z,78.75
2023-03-21T06:20:24.872Z,78.75
2023-03-21T06:21:26.802Z,84.38
2023-03-21T06:22:24.875Z,84.38
2023-03-21T06:23:24.900Z,84.38
2023-03-21T06:24:25.005Z,84.38
2023-03-21T06:25:24.824Z,90.00
2023-03-21T06:26:25.022Z,90.00
2023-03-21T06:27:24.759Z,90.00
2023-03-21T06:28:24.766Z,90.00
2023-03-21T06:29:24.899Z,90.00
2023-03-21T06:30:24.769Z,90.00
2023-03-21T06:31:24.842Z,90.00
2023-03-21T06:32:25.022Z,95.62
2023-03-21T06:33:24.719Z,101.25
2023-03-21T06:34:24.691Z,112.50
2023-03-21T06:35:24.778Z,118.12
2023-03-21T06:36:24.677Z,123.75
2023-03-21T06:37:24.686Z,135.00
2023-03-21T06:38:24.638Z,140.62
2023-03-21T06:39:24.635Z,146.25
2023-03-21T06:40:24.621Z,146.25
2023-03-21T06:41:24.679Z,151.88
2023-03-21T06:42:24.639Z,151.88
2023-03-21T06:43:24.589Z,157.50
2023-03-21T06:44:24.604Z,157.50
2023-03-21T06:45:24.571Z,163.12
2023-03-21T06:46:24.717Z,157.50
2023-03-21T06:47:24.564Z,157.50
2023-03-21T06:48:24.670Z,151.88
2023-03-21T06:49:24.574Z,146.25
2023-03-21T06:50:24.532Z,146.25
2023-03-21T06:51:24.504Z,140.62
2023-03-21T06:52:24.669Z,140.62
2023-03-21T06:53:24.485Z,140.62
2023-03-21T06:54:24.492Z,140.62
2023-03-21T06:55:24.458Z,146.25
2023-03-21T06:56:24.466Z,146.25
2023-03-21T06:57:24.438Z,151.88
2023-03-21T06:58:24.461Z,151.88
2023-03-21T06:59:24.414Z,163.12
2023-03-21T07:00:24.419Z,168.75
2023-03-21T07:01:24.420Z,174.38
2023-03-21T07:02:24.443Z,174.38
2023-03-21T07:03:24.429Z,185.62
2023-03-21T07:04:24.402Z,191.25
2023-03-21T07:05:24.390Z,191.25
2023-03-21T07:06:24.371Z,191.25
2023-03-21T07:07:24.337Z,191.25
2023-03-21T07:08:24.344Z,191.25
2023-03-21T07:09:24.362Z,191.25
2023-03-21T07:10:24.383Z,185.62
2023-03-21T07:11:24.328Z,180.00
2023-03-21T07:12:24.307Z,174.38
2023-03-21T07:13:24.295Z,174.38
2023-03-21T07:14:24.352Z,174.38
2023-03-21T07:15:24.318Z,174.38
2023-03-21T07:16:38.844Z,174.38
2023-03-21T07:17:24.221Z,174.38
2023-03-21T07:18:24.305Z,174.38
2023-03-21T07:19:24.317Z,174.38
2023-03-21T07:20:24.207Z,174.38
2023-03-21T07:21:24.223Z,174.38
2023-03-21T07:22:24.177Z,174.38
2023-03-21T07:23:24.177Z,174.38
2023-03-21T07:24:24.965Z,174.38
2023-03-21T07:25:24.299Z,174.38
2023-03-21T07:26:24.134Z,174.38
2023-03-21T07:27:24.110Z,174.38
2023-03-21T07:28:24.130Z,174.38
2023-03-21T07:29:24.173Z,174.38
2023-03-21T07:30:24.091Z,174.38
2023-03-21T07:31:24.201Z,180.00
2023-03-21T07:32:24.063Z,185.62
2023-03-21T07:33:24.058Z,191.25
2023-03-21T07:34:24.069Z,196.88
2023-03-21T07:35:24.106Z,208.12
2023-03-21T07:36:24.072Z,213.75
2023-03-21T07:37:24.085Z,219.38
2023-03-21T07:38:24.043Z,225.00
2023-03-21T07:39:23.988Z,230.62
2023-03-21T07:40:23.987Z,230.62
2023-03-21T07:41:24.010Z,236.25
2023-03-21T07:42:24.026Z,236.25
2023-03-21T07:43:23.982Z,241.88
2023-03-21T07:44:23.948Z,241.88
2023-03-21T07:45:23.956Z,241.88
2023-03-21T07:46:24.151Z,247.50
2023-03-21T07:47:23.903Z,247.50
2023-03-21T07:48:23.946Z,247.50
2023-03-21T07:49:23.870Z,253.12
2023-03-21T07:50:23.889Z,253.12
2023-03-21T07:51:23.876Z,258.75
2023-03-21T07:52:23.858Z,264.38
2023-03-21T07:53:23.851Z,264.38
2023-03-21T07:54:23.828Z,264.38
2023-03-21T07:55:23.865Z,264.38
2023-03-21T07:56:23.802Z,264.38
2023-03-21T07:57:23.812Z,270.00
2023-03-21T07:58:23.789Z,270.00
2023-03-21T07:59:23.813Z,270.00
2023-03-21T08:00:23.833Z,270.00
2023-03-21T08:01:23.779Z,275.62
2023-03-21T08:02:23.767Z,286.88
2023-03-21T08:03:23.777Z,303.75
2023-03-21T08:04:23.753Z,320.62
2023-03-21T08:05:23.768Z,337.50
2023-03-21T08:06:23.716Z,360.00
2023-03-21T08:07:23.750Z,376.88
2023-03-21T08:08:23.700Z,399.38
2023-03-21T08:09:23.734Z,416.25
2023-03-21T08:10:23.710Z,433.12
2023-03-21T08:11:23.740Z,450.00
2023-03-21T08:12:23.700Z,466.88
2023-03-21T08:13:23.651Z,472.50
2023-03-21T08:14:23.623Z,489.38
2023-03-21T08:15:23.603Z,500.62
2023-03-21T08:16:23.672Z,506.25
2023-03-21T08:17:23.589Z,523.12
2023-03-21T08:18:23.749Z,534.38
2023-03-21T08:19:23.585Z,551.25
2023-03-21T08:20:23.656Z,562.50
2023-03-21T08:21:23.567Z,568.12
2023-03-21T08:22:23.639Z,579.38
2023-03-21T08:23:23.616Z,585.00
2023-03-21T08:24:23.629Z,590.62
2023-03-21T08:25:23.526Z,590.62
2023-03-21T08:26:23.493Z,585.00
2023-03-21T08:27:23.479Z,585.00
2023-03-21T08:28:23.500Z,585.00
2023-03-21T08:29:23.473Z,590.62
2023-03-21T08:30:23.452Z,601.88
2023-03-21T08:31:23.523Z,613.12
2023-03-21T08:32:23.430Z,613.12
2023-03-21T08:33:23.493Z,607.50
2023-03-21T08:34:23.438Z,613.12
2023-03-21T08:35:23.401Z,618.75
2023-03-21T08:36:23.394Z,630.00
2023-03-21T08:37:23.421Z,641.25
2023-03-21T08:38:23.394Z,652.50
2023-03-21T08:39:23.406Z,669.38
2023-03-21T08:40:23.332Z,691.88
2023-03-21T08:41:23.375Z,714.38
2023-03-21T08:42:23.336Z,742.50
2023-03-21T08:43:23.308Z,776.25
2023-03-21T08:44:23.370Z,793.12
2023-03-21T08:45:23.300Z,821.25
2023-03-21T08:46:27.884Z,855.00
2023-03-21T08:47:23.281Z,855.00
2023-03-21T08:48:23.470Z,860.62
2023-03-21T08:49:23.287Z,883.12
2023-03-21T08:50:23.280Z,894.38
2023-03-21T08:51:23.239Z,888.75
2023-03-21T08:52:23.210Z,855.00
2023-03-21T08:53:23.249Z,843.75
2023-03-21T08:54:23.229Z,826.88
2023-03-21T08:55:23.207Z,821.25
2023-03-21T08:56:23.155Z,810.00
2023-03-21T08:57:23.195Z,804.38
2023-03-21T08:58:23.142Z,798.75
2023-03-21T08:59:23.147Z,793.12
2023-03-21T09:00:23.117Z,793.12
2023-03-21T09:01:23.184Z,793.12
2023-03-21T09:02:23.107Z,798.75
2023-03-21T09:03:23.086Z,815.62
2023-03-21T09:04:23.153Z,815.62
2023-03-21T09:05:23.060Z,810.00
2023-03-21T09:06:23.054Z,815.62
2023-03-21T09:07:23.033Z,826.88
2023-03-21T09:08:23.028Z,849.38
2023-03-21T09:09:23.156Z,877.50
2023-03-21T09:10:23.317Z,911.25
2023-03-21T09:11:23.015Z,939.38
2023-03-21T09:12:23.013Z,967.50
2023-03-21T09:13:22.974Z,1006.88
2023-03-21T09:14:28.459Z,1068.75
2023-03-21T09:15:23.993Z,1074.38
2023-03-21T09:16:27.969Z,1063.12
2023-03-21T09:17:22.941Z,1018.12
2023-03-21T09:18:22.953Z,961.88
2023-03-21T09:19:22.923Z,945.00
2023-03-21T09:20:22.918Z,928.12
2023-03-21T09:21:30.499Z,922.50
2023-03-21T09:22:22.886Z,922.50
2023-03-21T09:23:23.414Z,916.88
2023-03-21T09:24:22.875Z,916.88
2023-03-21T09:25:23.183Z,894.38
2023-03-21T09:26:22.862Z,916.88
2023-03-21T09:27:22.822Z,945.00
2023-03-21T09:28:22.840Z,973.12
2023-03-21T09:29:22.813Z,1012.50
2023-03-21T09:30:26.027Z,1029.38
2023-03-21T09:31:23.021Z,1046.25
2023-03-21T09:32:22.817Z,1006.88
2023-03-21T09:33:22.786Z,1125.00
2023-03-21T09:34:22.746Z,1220.62
2023-03-21T09:35:22.769Z,1530.00
2023-03-21T09:36:22.788Z,1085.62
2023-03-21T09:37:22.728Z,1068.75
2023-03-21T09:38:22.721Z,1102.50
2023-03-21T09:39:22.702Z,1192.50
2023-03-21T09:40:22.723Z,1141.88
2023-03-21T09:41:22.708Z,1074.38
2023-03-21T09:42:22.788Z,1063.12
2023-03-21T09:43:22.767Z,1080.00
2023-03-21T09:44:22.660Z,1091.25
2023-03-21T09:45:22.652Z,1051.88
2023-03-21T09:46:27.459Z,1040.62
2023-03-21T09:47:22.606Z,1023.75
2023-03-21T09:48:22.703Z,1029.38
2023-03-21T09:49:22.591Z,1012.50
2023-03-21T09:50:22.585Z,978.75
2023-03-21T09:51:22.665Z,950.62
2023-03-21T09:52:22.628Z,939.38
2023-03-21T09:53:22.609Z,945.00
2023-03-21T09:54:22.530Z,1265.62
2023-03-21T09:55:22.558Z,877.50
2023-03-21T09:56:22.507Z,883.12
2023-03-21T09:57:22.552Z,860.62
2023-03-21T09:58:22.505Z,855.00
2023-03-21T09:59:22.785Z,871.88
2023-03-21T10:00:22.573Z,832.50
2023-03-21T10:01:22.524Z,933.75
2023-03-21T10:02:22.483Z,1636.88
2023-03-21T10:03:22.429Z,866.25
2023-03-21T10:04:22.543Z,1164.38
2023-03-21T10:05:22.437Z,838.12
2023-03-21T10:06:22.394Z,866.25
2023-03-21T10:07:22.424Z,922.50
2023-03-21T10:08:23.392Z,821.25
2023-03-21T10:09:22.446Z,826.88
2023-03-21T10:10:22.391Z,815.62
2023-03-21T10:11:22.338Z,821.25
2023-03-21T10:12:22.343Z,810.00
2023-03-21T10:13:22.328Z,804.38
2023-03-21T10:14:22.346Z,793.12
2023-03-21T10:15:22.317Z,787.50
2023-03-21T10:16:23.002Z,776.25
2023-03-21T10:17:22.328Z,753.75
2023-03-21T10:18:22.270Z,748.12
2023-03-21T10:19:22.249Z,731.25
2023-03-21T10:20:22.388Z,714.38
2023-03-21T10:21:47.467Z,703.12
2023-03-21T10:22:23.280Z,697.50
2023-03-21T10:23:22.201Z,691.88
2023-03-21T10:24:22.199Z,686.25
2023-03-21T10:25:22.300Z,686.25
2023-03-21T10:26:22.182Z,697.50
2023-03-21T10:27:22.164Z,708.75
2023-03-21T10:28:22.167Z,725.62
2023-03-21T10:29:22.191Z,736.88
2023-03-21T10:30:22.280Z,748.12
2023-03-21T10:31:22.202Z,759.38
2023-03-21T10:32:22.152Z,765.00
2023-03-21T10:33:22.222Z,770.62
2023-03-21T10:34:22.120Z,781.88
2023-03-21T10:35:22.150Z,787.50
2023-03-21T10:36:22.160Z,810.00
2023-03-21T10:37:22.101Z,798.75
2023-03-21T10:38:22.056Z,956.25
2023-03-21T10:39:22.068Z,793.12
2023-03-21T10:40:22.019Z,776.25
2023-03-21T10:41:22.021Z,776.25
2023-03-21T10:42:22.060Z,770.62
2023-03-21T10:43:21.993Z,765.00
2023-03-21T10:44:22.027Z,810.00
2023-03-21T10:45:22.000Z,753.75
2023-03-21T10:46:22.232Z,742.50
2023-03-21T10:47:22.189Z,736.88
2023-03-21T10:48:22.112Z,714.38
2023-03-21T10:49:21.940Z,708.75
2023-03-21T10:50:21.955Z,708.75
2023-03-21T10:51:21.952Z,708.75
2023-03-21T10:52:21.904Z,703.12
2023-03-21T10:53:21.894Z,703.12
2023-03-21T10:54:21.882Z,703.12
2023-03-21T10:55:21.940Z,708.75
2023-03-21T10:56:21.852Z,714.38
2023-03-21T10:57:21.856Z,736.88
2023-03-21T10:58:21.830Z,748.12
2023-03-21T10:59:21.856Z,736.88
2023-03-21T11:00:21.940Z,731.25
2023-03-21T11:01:21.934Z,731.25
2023-03-21T11:02:21.876Z,720.00
2023-03-21T11:03:21.791Z,720.00
2023-03-21T11:04:21.869Z,720.00
2023-03-21T11:05:21.772Z,731.25
2023-03-21T11:06:21.810Z,725.62
2023-03-21T11:07:21.740Z,714.38
2023-03-21T11:08:21.792Z,703.12
2023-03-21T11:09:21.705Z,697.50
2023-03-21T11:10:28.636Z,691.88
2023-03-21T11:11:22.706Z,686.25
2023-03-21T11:12:21.737Z,697.50
2023-03-21T11:13:21.685Z,708.75
2023-03-21T11:14:21.679Z,697.50
2023-03-21T11:15:21.686Z,691.88
2023-03-21T11:16:21.726Z,697.50
2023-03-21T11:17:21.658Z,703.12
2023-03-21T11:18:21.644Z,720.00
2023-03-21T11:19:21.627Z,736.88
2023-03-21T11:20:21.625Z,753.75
2023-03-21T11:21:21.678Z,776.25
2023-03-21T11:22:21.599Z,810.00
2023-03-21T11:23:21.575Z,821.25
2023-03-21T11:24:21.639Z,815.62
2023-03-21T11:25:21.555Z,838.12
2023-03-21T11:26:21.627Z,900.00
2023-03-21T11:27:21.540Z,928.12
2023-03-21T11:28:21.522Z,961.88
2023-03-21T11:29:21.562Z,973.12
2023-03-21T11:30:21.519Z,995.62
2023-03-21T11:31:21.574Z,1040.62
2023-03-21T11:32:21.462Z,1035.00
2023-03-21T11:33:21.507Z,1035.00
2023-03-21T11:34:22.504Z,1023.75
2023-03-21T11:35:21.480Z,1085.62
2023-03-21T11:36:21.609Z,1136.25
2023-03-21T11:37:21.414Z,1136.25
2023-03-21T11:38:21.399Z,1170.00
2023-03-21T11:39:21.408Z,1153.12
2023-03-21T11:40:21.556Z,1113.75
2023-03-21T11:41:21.471Z,1096.88
2023-03-21T11:42:21.408Z,1417.50
2023-03-21T11:43:21.351Z,1063.12
2023-03-21T11:44:21.482Z,1074.38
2023-03-21T11:45:21.392Z,1147.50
2023-03-21T11:46:32.346Z,1018.12
2023-03-21T11:47:21.373Z,961.88
2023-03-21T11:48:21.412Z,939.38
2023-03-21T11:49:21.284Z,939.38
2023-03-21T11:50:21.321Z,945.00
2023-03-21T11:51:21.306Z,894.38
2023-03-21T11:52:21.273Z,871.88
2023-03-21T11:53:21.426Z,866.25
2023-03-21T11:54:21.232Z,860.62
2023-03-21T11:55:21.233Z,826.88
2023-03-21T11:56:21.235Z,804.38
2023-03-21T11:57:21.377Z,776.25
2023-03-21T11:58:21.261Z,765.00
2023-03-21T11:59:21.286Z,781.88
2023-03-21T12:00:21.355Z,843.75
2023-03-21T12:01:21.273Z,984.38
2023-03-21T12:02:21.305Z,855.00
2023-03-21T12:03:21.223Z,810.00
2023-03-21T12:04:21.448Z,826.88
2023-03-21T12:05:21.148Z,838.12
2023-03-21T12:06:21.230Z,855.00
2023-03-21T12:07:21.217Z,838.12
2023-03-21T12:08:21.229Z,838.12
2023-03-21T12:09:21.402Z,826.88
2023-03-21T12:10:21.136Z,821.25
2023-03-21T12:11:21.186Z,821.25
2023-03-21T12:12:26.970Z,804.38
2023-03-21T12:13:22.089Z,793.12
2023-03-21T12:14:21.029Z,781.88
2023-03-21T12:15:21.104Z,770.62
2023-03-21T12:16:21.360Z,753.75
2023-03-21T12:17:21.087Z,736.88
2023-03-21T12:18:21.126Z,714.38
2023-03-21T12:19:21.052Z,691.88
2023-03-21T12:20:21.218Z,680.62
2023-03-21T12:21:21.106Z,669.38
2023-03-21T12:22:21.161Z,675.00
2023-03-21T12:23:21.172Z,697.50
2023-03-21T12:24:21.010Z,731.25
2023-03-21T12:25:21.096Z,770.62
2023-03-21T12:26:21.068Z,826.88
2023-03-21T12:27:21.047Z,883.12
2023-03-21T12:28:31.669Z,922.50
2023-03-21T12:29:21.855Z,928.12
2023-03-21T12:30:21.996Z,939.38
2023-03-21T12:31:21.371Z,1001.25
2023-03-21T12:32:20.983Z,1085.62
2023-03-21T12:33:21.020Z,1108.12
2023-03-21T12:34:20.996Z,1057.50
2023-03-21T12:35:21.118Z,1057.50
2023-03-21T12:36:21.037Z,1018.12
2023-03-21T12:37:20.813Z,1164.38
2023-03-21T12:38:21.133Z,978.75
2023-03-21T12:39:21.100Z,967.50
2023-03-21T12:40:20.838Z,950.62
2023-03-21T12:41:20.802Z,950.62
2023-03-21T12:42:20.794Z,916.88
2023-03-21T12:43:20.909Z,967.50
2023-03-21T12:44:20.906Z,1018.12
2023-03-21T12:45:20.924Z,1012.50
2023-03-21T12:46:20.986Z,1057.50
2023-03-21T12:47:21.079Z,1068.75
2023-03-21T12:48:20.848Z,1051.88
2023-03-21T12:49:20.787Z,1136.25
2023-03-21T12:50:20.829Z,1068.75